createdAt,value
2018-08-11T00:00:41.363Z,1.90
2018-08-11T00:01:45.518Z,1.92
2018-08-11T00:02:50.364Z,2.00
2018-08-11T00:03:54.549Z,2.05
2018-08-11T00:04:58.740Z,2.20
2018-08-11T00:06:02.946Z,1.80
2018-08-11T00:07:07.126Z,1.70
2018-08-11T00:08:11.287Z,1.85
2018-08-11T00:09:15.472Z,1.80
2018-08-11T00:10:19.826Z,1.60
2018-08-11T00:11:24.030Z,1.95
2018-08-11T00:12:28.191Z,1.95
2018-08-11T00:13:32.427Z,2.20
2018-08-11T00:14:36.678Z,2.45
2018-08-11T00:15:40.898Z,1.90
2018-08-11T00:16:45.127Z,2.22
2018-08-11T00:17:49.365Z,2.02
2018-08-11T00:18:53.525Z,1.90
2018-08-11T00:19:57.921Z,2.37
2018-08-11T00:21:02.096Z,2.05
2018-08-11T00:22:06.806Z,2.10
2018-08-11T00:23:10.990Z,1.90
2018-08-11T00:24:15.142Z,2.27
2018-08-11T00:25:19.459Z,1.77
2018-08-11T00:26:23.664Z,1.70
2018-08-11T00:27:31.797Z,2.50
2018-08-11T00:28:36.127Z,2.67
2018-08-11T00:29:40.319Z,1.70
2018-08-11T00:30:44.482Z,2.00
2018-08-11T00:31:48.696Z,2.05
2018-08-11T00:32:52.870Z,2.02
2018-08-11T00:33:57.054Z,1.98
2018-08-11T00:35:01.299Z,1.60
2018-08-11T00:36:05.505Z,1.95
2018-08-11T00:37:09.709Z,1.82
2018-08-11T00:38:13.914Z,2.60
2018-08-11T00:39:18.078Z,1.80
2018-08-11T00:40:22.631Z,2.00
2018-08-11T00:41:26.956Z,2.17
2018-08-11T00:42:31.118Z,2.70
2018-08-11T00:43:35.352Z,2.02
2018-08-11T00:44:39.521Z,2.92
2018-08-11T00:45:43.761Z,2.37
2018-08-11T00:46:47.902Z,3.45
2018-08-11T00:47:52.443Z,2.50
2018-08-11T00:48:56.889Z,2.30
2018-08-11T00:50:01.287Z,2.65
2018-08-11T00:51:05.517Z,2.77
2018-08-11T00:52:09.795Z,3.10
2018-08-11T00:53:14.042Z,2.50
2018-08-11T00:54:18.258Z,2.55
2018-08-11T00:55:22.455Z,3.17
2018-08-11T00:56:26.630Z,2.83
2018-08-11T00:57:30.939Z,3.25
2018-08-11T00:58:35.102Z,3.95
2018-08-11T00:59:39.348Z,3.40
2018-08-11T01:00:43.535Z,2.87
2018-08-11T01:01:47.747Z,3.60
2018-08-11T01:02:51.952Z,4.08
2018-08-11T01:03:56.196Z,4.33
2018-08-11T01:05:00.424Z,4.10
2018-08-11T01:06:04.634Z,4.22
2018-08-11T01:07:08.937Z,5.03
2018-08-11T01:08:13.183Z,3.75
2018-08-11T01:09:17.366Z,5.05
2018-08-11T01:10:21.588Z,4.30
2018-08-11T01:11:25.792Z,4.03
2018-08-11T01:12:29.978Z,3.50
2018-08-11T01:13:34.185Z,3.65
2018-08-11T01:14:38.345Z,3.75
2018-08-11T01:15:42.565Z,2.90
2018-08-11T01:16:46.767Z,2.67
2018-08-11T01:17:51.479Z,2.83
2018-08-11T01:18:55.667Z,2.22
2018-08-11T01:19:59.939Z,2.20
2018-08-11T01:21:04.134Z,1.90
2018-08-11T01:22:08.553Z,2.27
2018-08-11T01:23:12.734Z,2.25
2018-08-11T01:24:16.918Z,2.20
2018-08-11T01:25:21.130Z,1.80
2018-08-11T01:26:25.345Z,1.90
2018-08-11T01:27:29.607Z,3.77
2018-08-11T01:28:33.838Z,3.00
2018-08-11T01:29:38.118Z,1.82
2018-08-11T01:30:42.278Z,1.70
2018-08-11T01:31:46.495Z,2.00
2018-08-11T01:32:50.702Z,2.15
2018-08-11T01:33:54.874Z,2.47
2018-08-11T01:34:59.052Z,2.58
2018-08-11T01:36:03.206Z,2.40
2018-08-11T01:37:07.443Z,2.35
2018-08-11T01:38:11.602Z,2.35
2018-08-11T01:39:15.774Z,2.10
2018-08-11T01:40:19.990Z,1.92
2018-08-11T01:41:24.835Z,2.40
2018-08-11T01:42:29.022Z,2.90
2018-08-11T01:43:33.201Z,2.90
2018-08-11T01:44:37.464Z,2.50
2018-08-11T01:45:41.651Z,3.05
2018-08-11T01:46:45.838Z,2.80
2018-08-11T01:47:50.099Z,2.50
2018-08-11T01:48:54.246Z,2.45
2018-08-11T01:49:58.530Z,2.50
2018-08-11T01:51:02.898Z,2.00
2018-08-11T01:52:07.142Z,1.80
2018-08-11T01:53:11.326Z,2.40
2018-08-11T01:54:15.582Z,1.72
2018-08-11T01:55:19.761Z,2.20
2018-08-11T01:56:24.147Z,2.10
2018-08-11T01:57:28.330Z,1.90
2018-08-11T01:58:32.498Z,2.00
2018-08-11T01:59:36.683Z,1.60
2018-08-11T02:00:41.189Z,2.55
2018-08-11T02:01:45.330Z,1.80
2018-08-11T02:02:49.605Z,1.92
2018-08-11T02:03:53.827Z,2.08
2018-08-11T02:04:58.046Z,1.85
2018-08-11T02:06:02.375Z,2.15
2018-08-11T02:07:06.624Z,1.77
2018-08-11T02:08:10.989Z,1.90
2018-08-11T02:09:15.309Z,2.02
2018-08-11T02:10:20.845Z,1.52
2018-08-11T02:11:25.039Z,2.37
2018-08-11T02:12:29.295Z,2.45
2018-08-11T02:13:33.496Z,2.25
2018-08-11T02:14:37.807Z,1.67
2018-08-11T02:15:41.970Z,1.90
2018-08-11T02:16:46.163Z,1.95
2018-08-11T02:17:50.341Z,1.90
2018-08-11T02:18:54.607Z,2.08
2018-08-11T02:19:58.938Z,2.08
2018-08-11T02:21:03.105Z,2.00
2018-08-11T02:22:07.350Z,1.90
2018-08-11T02:23:11.549Z,1.98
2018-08-11T02:24:15.755Z,1.70
2018-08-11T02:25:20.112Z,1.55
2018-08-11T02:26:24.495Z,2.58
2018-08-11T02:27:28.662Z,1.95
2018-08-11T02:28:33.098Z,1.60
2018-08-11T02:29:37.266Z,2.10
2018-08-11T02:30:41.474Z,1.50
2018-08-11T02:31:45.670Z,1.77
2018-08-11T02:32:49.867Z,1.90
2018-08-11T02:33:54.074Z,2.50
2018-08-11T02:34:58.244Z,1.95
2018-08-11T02:36:02.562Z,1.92
2018-08-11T02:37:06.884Z,1.55
2018-08-11T02:38:11.139Z,2.08
2018-08-11T02:39:15.709Z,1.65
2018-08-11T02:40:20.105Z,1.82
2018-08-11T02:41:24.322Z,2.35
2018-08-11T02:42:28.727Z,1.92
2018-08-11T02:43:32.904Z,1.55
2018-08-11T02:44:37.225Z,2.20
2018-08-11T02:45:41.362Z,2.15
2018-08-11T02:46:45.565Z,2.08
2018-08-11T02:47:49.755Z,2.30
2018-08-11T02:48:53.963Z,2.20
2018-08-11T02:49:58.124Z,2.30
2018-08-11T02:51:02.667Z,2.85
2018-08-11T02:52:06.875Z,2.60
2018-08-11T02:53:11.038Z,2.02
2018-08-11T02:54:15.384Z,1.67
2018-08-11T02:55:19.526Z,2.42
2018-08-11T02:56:23.710Z,3.10
2018-08-11T02:57:28.058Z,2.25
2018-08-11T02:58:32.200Z,2.67
2018-08-11T02:59:36.358Z,2.45
2018-08-11T03:00:40.686Z,1.90
2018-08-11T03:01:44.907Z,2.02
2018-08-11T03:02:49.267Z,2.08
2018-08-11T03:03:53.743Z,2.00
2018-08-11T03:04:57.890Z,2.37
2018-08-11T03:06:02.188Z,2.70
2018-08-11T03:07:07.098Z,1.82
2018-08-11T03:08:11.306Z,1.85
2018-08-11T03:09:15.482Z,1.85
2018-08-11T03:10:19.960Z,2.08
2018-08-11T03:11:24.162Z,2.00
2018-08-11T03:12:28.431Z,2.20
2018-08-11T03:13:32.602Z,2.72
2018-08-11T03:14:36.806Z,2.17
2018-08-11T03:15:41.035Z,2.40
2018-08-11T03:16:45.204Z,3.05
2018-08-11T03:17:49.374Z,3.70
2018-08-11T03:18:53.547Z,3.58
2018-08-11T03:19:58.107Z,3.55
2018-08-11T03:21:02.261Z,3.27
2018-08-11T03:22:06.462Z,2.27
2018-08-11T03:23:10.611Z,2.25
2018-08-11T03:24:14.778Z,2.00
2018-08-11T03:25:19.032Z,2.25
2018-08-11T03:26:23.195Z,2.05
2018-08-11T03:27:27.375Z,2.05
2018-08-11T03:28:31.518Z,2.37
2018-08-11T03:29:35.694Z,3.15
2018-08-11T03:30:39.871Z,1.70
2018-08-11T03:31:44.091Z,2.20
2018-08-11T03:32:48.278Z,2.12
2018-08-11T03:33:52.574Z,1.98
2018-08-11T03:34:56.866Z,2.22
2018-08-11T03:36:01.347Z,2.20
2018-08-11T03:37:05.645Z,2.30
2018-08-11T03:38:09.938Z,2.15
2018-08-11T03:39:14.138Z,2.08
2018-08-11T03:40:18.404Z,1.90
2018-08-11T03:41:22.526Z,1.70
2018-08-11T03:42:26.677Z,2.60
2018-08-11T03:43:30.945Z,2.35
2018-08-11T03:44:35.134Z,2.60
2018-08-11T03:45:39.306Z,2.30
2018-08-11T03:46:43.459Z,2.60
2018-08-11T03:47:47.647Z,2.30
2018-08-11T03:48:51.794Z,2.60
2018-08-11T03:49:56.044Z,2.45
2018-08-11T03:51:00.222Z,2.20
2018-08-11T03:52:04.741Z,2.22
2018-08-11T03:53:08.888Z,2.37
2018-08-11T03:54:13.022Z,2.90
2018-08-11T03:55:17.172Z,2.58
2018-08-11T03:56:21.330Z,2.35
2018-08-11T03:57:25.492Z,2.10
2018-08-11T03:58:29.601Z,2.70
2018-08-11T03:59:33.801Z,2.35
2018-08-11T04:00:38.103Z,1.90
2018-08-11T04:01:42.234Z,2.25
2018-08-11T04:02:46.539Z,3.10
2018-08-11T04:03:50.669Z,2.05
2018-08-11T04:04:54.828Z,2.35
2018-08-11T04:05:58.954Z,2.58
2018-08-11T04:07:03.098Z,2.47
2018-08-11T04:08:07.274Z,2.92
2018-08-11T04:09:11.472Z,3.00
2018-08-11T04:10:15.649Z,2.50
2018-08-11T04:11:19.772Z,2.75
2018-08-11T04:12:23.943Z,2.35
2018-08-11T04:13:28.222Z,2.70
2018-08-11T04:14:32.452Z,2.52
2018-08-11T04:15:36.602Z,2.90
2018-08-11T04:16:40.882Z,2.12
2018-08-11T04:17:45.186Z,3.17
2018-08-11T04:18:49.295Z,3.22
2018-08-11T04:19:53.450Z,2.90
2018-08-11T04:20:59.006Z,2.72
2018-08-11T04:22:03.145Z,2.60
2018-08-11T04:23:07.401Z,2.95
2018-08-11T04:24:11.644Z,2.70
2018-08-11T04:25:15.786Z,2.60
2018-08-11T04:26:20.074Z,2.70
2018-08-11T04:27:24.365Z,2.42
2018-08-11T04:28:28.514Z,2.70
2018-08-11T04:29:32.635Z,2.85
2018-08-11T04:30:36.755Z,2.35
2018-08-11T04:31:40.890Z,2.42
2018-08-11T04:32:45.084Z,2.60
2018-08-11T04:33:49.225Z,2.92
2018-08-11T04:34:53.354Z,3.08
2018-08-11T04:35:57.482Z,3.40
2018-08-11T04:37:01.591Z,3.17
2018-08-11T04:38:05.714Z,2.80
2018-08-11T04:39:10.099Z,3.40
2018-08-11T04:40:14.416Z,3.20
2018-08-11T04:41:18.581Z,3.20
2018-08-11T04:42:22.746Z,4.10
2018-08-11T04:43:26.897Z,3.42
2018-08-11T04:44:31.256Z,2.80
2018-08-11T04:45:35.390Z,2.75
2018-08-11T04:46:39.557Z,3.35
2018-08-11T04:47:43.858Z,3.77
2018-08-11T04:48:47.981Z,3.00
2018-08-11T04:49:52.182Z,3.87
2018-08-11T04:50:56.325Z,3.45
2018-08-11T04:52:00.570Z,3.65
2018-08-11T04:53:05.171Z,2.70
2018-08-11T04:54:09.390Z,3.40
2018-08-11T04:55:13.550Z,3.12
2018-08-11T04:56:17.714Z,3.27
2018-08-11T04:57:22.108Z,3.85
2018-08-11T04:58:26.234Z,3.62
2018-08-11T04:59:30.401Z,3.50
2018-08-11T05:00:34.606Z,3.17
2018-08-11T05:01:38.786Z,2.85
2018-08-11T05:02:42.954Z,3.65
2018-08-11T05:03:47.135Z,3.60
2018-08-11T05:04:51.621Z,3.85
2018-08-11T05:05:55.790Z,3.75
2018-08-11T05:06:59.958Z,3.47
2018-08-11T05:08:04.159Z,4.58
2018-08-11T05:09:09.146Z,3.87
2018-08-11T05:10:13.295Z,3.62
2018-08-11T05:11:17.494Z,3.58
2018-08-11T05:12:21.666Z,3.52
2018-08-11T05:13:25.926Z,4.15
2018-08-11T05:14:30.079Z,3.30
2018-08-11T05:15:34.262Z,3.85
2018-08-11T05:16:38.518Z,4.25
2018-08-11T05:17:42.678Z,3.92
2018-08-11T05:18:46.854Z,4.37
2018-08-11T05:19:51.205Z,4.12
2018-08-11T05:20:55.373Z,4.67
2018-08-11T05:21:59.563Z,4.30
2018-08-11T05:23:03.762Z,3.40
2018-08-11T05:24:08.223Z,4.22
2018-08-11T05:25:12.382Z,4.25
2018-08-11T05:26:16.603Z,3.75
2018-08-11T05:27:20.853Z,4.20
2018-08-11T05:28:25.006Z,3.70
2018-08-11T05:29:29.163Z,3.85
2018-08-11T05:30:33.366Z,3.55
2018-08-11T05:31:37.649Z,4.40
2018-08-11T05:32:41.919Z,4.22
2018-08-11T05:33:46.052Z,3.77
2018-08-11T05:34:50.419Z,3.50
2018-08-11T05:35:54.570Z,5.30
2018-08-11T05:36:58.729Z,3.98
2018-08-11T05:38:02.935Z,4.35
2018-08-11T05:39:12.265Z,4.15
2018-08-11T05:40:16.502Z,4.62
2018-08-11T05:41:20.690Z,4.50
2018-08-11T05:42:24.895Z,4.25
2018-08-11T05:43:29.101Z,4.40
2018-08-11T05:44:33.277Z,4.50
2018-08-11T05:45:37.587Z,4.35
2018-08-11T05:46:41.726Z,4.72
2018-08-11T05:47:46.113Z,4.80
2018-08-11T05:48:50.299Z,5.80
2018-08-11T05:49:54.565Z,4.62
2018-08-11T05:50:58.746Z,5.50
2018-08-11T05:52:02.942Z,5.05
2018-08-11T05:53:07.366Z,5.12
2018-08-11T05:54:11.521Z,4.62
2018-08-11T05:55:15.782Z,5.33
2018-08-11T05:56:19.911Z,5.00
2018-08-11T05:57:24.091Z,4.95
2018-08-11T05:58:28.400Z,5.12
2018-08-11T05:59:32.579Z,5.37
2018-08-11T06:00:36.709Z,5.70
2018-08-11T06:01:40.866Z,5.28
2018-08-11T06:02:45.074Z,5.30
2018-08-11T06:03:49.196Z,6.17
2018-08-11T06:04:53.357Z,6.30
2018-08-11T06:05:57.479Z,6.72
2018-08-11T06:07:01.619Z,6.25
2018-08-11T06:08:06.115Z,5.92
2018-08-11T06:09:10.974Z,7.25
2018-08-11T06:10:15.130Z,6.25
2018-08-11T06:11:19.304Z,6.80
2018-08-11T06:12:23.462Z,5.55
2018-08-11T06:13:27.609Z,6.78
2018-08-11T06:14:31.777Z,5.72
2018-08-11T06:15:36.457Z,6.35
2018-08-11T06:16:40.669Z,6.00
2018-08-11T06:17:44.844Z,6.53
2018-08-11T06:18:49.072Z,5.95
2018-08-11T06:19:53.224Z,5.95
2018-08-11T06:20:57.490Z,5.67
2018-08-11T06:22:01.634Z,5.92
2018-08-11T06:23:06.049Z,5.80
2018-08-11T06:24:10.228Z,5.85
2018-08-11T06:25:14.548Z,5.53
2018-08-11T06:26:18.741Z,5.67
2018-08-11T06:27:22.922Z,5.47
2018-08-11T06:28:27.086Z,6.28
2018-08-11T06:29:31.328Z,5.53
2018-08-11T06:30:35.567Z,5.95
2018-08-11T06:31:39.804Z,4.70
2018-08-11T06:32:44.082Z,5.47
2018-08-11T06:33:48.182Z,5.30
2018-08-11T06:34:52.662Z,4.87
2018-08-11T06:35:56.895Z,5.50
2018-08-11T06:37:01.210Z,5.42
2018-08-11T06:38:05.365Z,5.58
2018-08-11T06:39:12.125Z,5.70
2018-08-11T06:40:16.291Z,6.78
2018-08-11T06:41:20.461Z,5.60
2018-08-11T06:42:24.638Z,5.53
2018-08-11T06:43:28.861Z,5.80
2018-08-11T06:44:32.994Z,5.47
2018-08-11T06:45:37.272Z,4.83
2018-08-11T06:46:41.494Z,5.37
2018-08-11T06:47:45.683Z,5.22
2018-08-11T06:48:49.841Z,5.05
2018-08-11T06:49:53.982Z,5.17
2018-08-11T06:50:58.326Z,5.15
2018-08-11T06:52:02.524Z,4.92
2018-08-11T06:53:06.778Z,5.00
2018-08-11T06:54:11.298Z,5.40
2018-08-11T06:55:15.450Z,5.42
2018-08-11T06:56:19.590Z,5.17
2018-08-11T06:57:23.742Z,5.60
2018-08-11T06:58:27.891Z,7.00
2018-08-11T06:59:32.038Z,5.03
2018-08-11T07:00:36.188Z,5.25
2018-08-11T07:01:40.327Z,5.20
2018-08-11T07:02:44.497Z,5.97
2018-08-11T07:03:48.652Z,5.83
2018-08-11T07:04:52.818Z,5.65
2018-08-11T07:05:56.951Z,5.30
2018-08-11T07:07:01.361Z,4.35
2018-08-11T07:08:05.510Z,4.92
2018-08-11T07:09:10.590Z,4.75
2018-08-11T07:10:14.827Z,5.15
2018-08-11T07:11:19.424Z,4.58
2018-08-11T07:12:23.570Z,3.70
2018-08-11T07:13:27.703Z,3.80
2018-08-11T07:14:31.870Z,4.60
2018-08-11T07:15:36.007Z,4.85
2018-08-11T07:16:40.130Z,4.60
2018-08-11T07:17:44.265Z,5.17
2018-08-11T07:18:48.839Z,3.90
2018-08-11T07:19:53.169Z,4.55
2018-08-11T07:20:57.477Z,4.40
2018-08-11T07:22:01.604Z,4.95
2018-08-11T07:23:05.784Z,6.12
2018-08-11T07:24:09.990Z,5.00
2018-08-11T07:25:14.138Z,5.45
2018-08-11T07:26:18.335Z,4.00
2018-08-11T07:27:22.502Z,4.78
2018-08-11T07:28:26.801Z,5.12
2018-08-11T07:29:31.118Z,4.50
2018-08-11T07:30:35.342Z,4.80
2018-08-11T07:31:40.138Z,3.90
2018-08-11T07:32:44.761Z,4.15
2018-08-11T07:33:48.974Z,4.12
2018-08-11T07:34:53.272Z,4.28
2018-08-11T07:35:57.451Z,4.80
2018-08-11T07:37:01.681Z,4.25
2018-08-11T07:38:06.026Z,5.17
2018-08-11T07:39:10.462Z,4.58
2018-08-11T07:40:14.623Z,4.37
2018-08-11T07:41:18.819Z,5.08
2018-08-11T07:42:22.942Z,4.65
2018-08-11T07:43:27.331Z,4.65
2018-08-11T07:44:31.421Z,3.75
2018-08-11T07:45:35.732Z,4.67
2018-08-11T07:46:40.087Z,3.92
2018-08-11T07:47:44.243Z,4.03
2018-08-11T07:48:48.405Z,3.92
2018-08-11T07:49:52.757Z,4.80
2018-08-11T07:50:56.890Z,4.50
2018-08-11T07:52:01.079Z,3.83
2018-08-11T07:53:05.376Z,3.33
2018-08-11T07:54:09.578Z,4.75
2018-08-11T07:55:13.981Z,3.15
2018-08-11T07:56:18.179Z,3.95
2018-08-11T07:57:22.382Z,3.92
2018-08-11T07:58:33.291Z,4.05
2018-08-11T07:59:37.460Z,3.30
2018-08-11T08:00:41.618Z,3.52
2018-08-11T08:01:45.780Z,3.30
2018-08-11T08:02:49.988Z,3.27
2018-08-11T08:03:54.577Z,3.62
2018-08-11T08:04:58.966Z,4.30
2018-08-11T08:06:03.218Z,3.30
2018-08-11T08:07:07.411Z,3.20
2018-08-11T08:08:11.584Z,3.20
2018-08-11T08:09:15.766Z,3.75
2018-08-11T08:10:20.142Z,3.77
2018-08-11T08:11:24.474Z,3.60
2018-08-11T08:12:28.747Z,3.20
2018-08-11T08:13:32.959Z,3.30
2018-08-11T08:14:37.094Z,3.15
2018-08-11T08:15:41.463Z,3.05
2018-08-11T08:16:45.644Z,2.90
2018-08-11T08:17:49.806Z,3.30
2018-08-11T08:18:53.979Z,3.22
2018-08-11T08:19:58.182Z,3.95
2018-08-11T08:21:02.387Z,2.75
2018-08-11T08:22:07.130Z,2.70
2018-08-11T08:23:11.317Z,2.67
2018-08-11T08:24:15.518Z,3.25
2018-08-11T08:25:19.870Z,3.15
2018-08-11T08:26:24.219Z,3.20
2018-08-11T08:27:28.292Z,3.17
2018-08-11T08:28:32.539Z,3.70
2018-08-11T08:29:36.689Z,3.25
2018-08-11T08:30:40.855Z,2.60
2018-08-11T08:31:45.055Z,3.20
2018-08-11T08:32:49.238Z,3.10
2018-08-11T08:33:53.503Z,2.90
2018-08-11T08:34:57.710Z,3.15
2018-08-11T08:36:02.359Z,2.30
2018-08-11T08:37:06.590Z,3.02
2018-08-11T08:38:10.773Z,3.00
2018-08-11T08:39:15.001Z,2.77
2018-08-11T08:40:19.309Z,2.92
2018-08-11T08:41:23.821Z,2.70
2018-08-11T08:42:27.977Z,3.00
2018-08-11T08:43:32.231Z,2.90
2018-08-11T08:44:36.494Z,2.50
2018-08-11T08:45:40.934Z,3.15
2018-08-11T08:46:45.590Z,2.50
2018-08-11T08:47:49.768Z,2.02
2018-08-11T08:48:53.947Z,2.50
2018-08-11T08:49:58.281Z,2.70
2018-08-11T08:51:02.475Z,2.87
2018-08-11T08:52:06.897Z,2.45
2018-08-11T08:53:11.080Z,2.80
2018-08-11T08:54:15.245Z,2.52
2018-08-11T08:55:19.835Z,2.60
2018-08-11T08:56:24.007Z,2.30
2018-08-11T08:57:28.175Z,2.35
2018-08-11T08:58:32.322Z,2.15
2018-08-11T08:59:36.644Z,2.50
2018-08-11T09:00:40.946Z,2.40
2018-08-11T09:01:45.127Z,2.15
2018-08-11T09:02:49.286Z,2.30
2018-08-11T09:03:53.433Z,2.12
2018-08-11T09:04:57.649Z,2.40
2018-08-11T09:06:01.702Z,2.70
2018-08-11T09:07:05.895Z,2.58
2018-08-11T09:08:10.178Z,2.50
2018-08-11T09:09:14.307Z,2.12
2018-08-11T09:10:18.584Z,2.67
2018-08-11T09:11:22.726Z,2.50
2018-08-11T09:12:26.922Z,1.90
2018-08-11T09:13:31.102Z,2.20
2018-08-11T09:14:35.212Z,2.75
2018-08-11T09:15:39.366Z,2.12
2018-08-11T09:16:43.519Z,1.98
2018-08-11T09:17:47.654Z,2.22
2018-08-11T09:18:52.190Z,2.10
2018-08-11T09:19:56.333Z,1.80
2018-08-11T09:21:00.539Z,1.92
2018-08-11T09:22:04.659Z,2.27
2018-08-11T09:23:09.030Z,2.15
2018-08-11T09:24:13.260Z,2.33
2018-08-11T09:25:17.419Z,2.02
2018-08-11T09:26:21.562Z,2.37
2018-08-11T09:27:25.705Z,2.10
2018-08-11T09:28:29.878Z,4.10
2018-08-11T09:29:34.019Z,2.40
2018-08-11T09:30:38.161Z,2.27
2018-08-11T09:31:42.314Z,2.17
2018-08-11T09:32:46.531Z,2.20
2018-08-11T09:33:50.723Z,2.12
2018-08-11T09:34:54.850Z,1.80
2018-08-11T09:35:59.204Z,2.60
2018-08-11T09:37:03.306Z,2.25
2018-08-11T09:38:07.454Z,2.10
2018-08-11T09:39:12.433Z,2.10
2018-08-11T09:40:16.565Z,2.42
2018-08-11T09:41:20.717Z,2.05
2018-08-11T09:42:24.855Z,1.90
2018-08-11T09:43:28.985Z,2.00
2018-08-11T09:44:33.256Z,1.80
2018-08-11T09:45:37.396Z,2.40
2018-08-11T09:46:41.531Z,2.20
2018-08-11T09:47:45.694Z,2.50
2018-08-11T09:48:49.870Z,1.95
2018-08-11T09:49:53.990Z,2.00
2018-08-11T09:50:58.135Z,2.15
2018-08-11T09:52:02.384Z,2.40
2018-08-11T09:53:06.606Z,2.05
2018-08-11T09:54:10.794Z,1.75
2018-08-11T09:55:14.935Z,2.00
2018-08-11T09:56:19.261Z,2.15
2018-08-11T09:57:23.408Z,2.47
2018-08-11T09:58:27.781Z,2.12
2018-08-11T09:59:31.938Z,2.20
2018-08-11T10:00:41.337Z,1.77
2018-08-11T10:01:46.862Z,1.90
2018-08-11T10:02:52.690Z,2.12
2018-08-11T10:03:56.935Z,2.10
2018-08-11T10:05:01.161Z,1.95
2018-08-11T10:06:05.278Z,2.10
2018-08-11T10:07:09.414Z,2.30
2018-08-11T10:08:13.558Z,2.02
2018-08-11T10:09:17.682Z,1.98
2018-08-11T10:10:21.806Z,2.33
2018-08-11T10:11:26.146Z,2.05
2018-08-11T10:12:30.310Z,2.33
2018-08-11T10:13:34.433Z,2.02
2018-08-11T10:14:38.598Z,2.12
2018-08-11T10:15:43.041Z,2.20
2018-08-11T10:16:47.296Z,1.92
2018-08-11T10:17:51.422Z,1.80
2018-08-11T10:18:55.579Z,2.35
2018-08-11T10:19:59.719Z,2.00
2018-08-11T10:21:04.074Z,2.27
2018-08-11T10:22:08.267Z,2.25
2018-08-11T10:23:12.393Z,2.10
2018-08-11T10:24:16.537Z,2.50
2018-08-11T10:25:20.685Z,2.10
2018-08-11T10:26:24.994Z,2.00
2018-08-11T10:27:29.162Z,2.50
2018-08-11T10:28:33.317Z,2.30
2018-08-11T10:29:37.472Z,2.35
2018-08-11T10:30:41.653Z,1.77
2018-08-11T10:31:45.868Z,2.30
2018-08-11T10:32:50.031Z,2.22
2018-08-11T10:33:54.184Z,2.10
2018-08-11T10:34:58.330Z,2.33
2018-08-11T10:36:02.680Z,2.55
2018-08-11T10:37:06.806Z,1.90
2018-08-11T10:38:10.990Z,2.37
2018-08-11T10:39:15.189Z,2.00
2018-08-11T10:40:19.435Z,2.25
2018-08-11T10:41:23.604Z,2.20
2018-08-11T10:42:27.722Z,2.20
2018-08-11T10:43:32.199Z,2.45
2018-08-11T10:44:36.317Z,1.95
2018-08-11T10:45:40.633Z,1.77
2018-08-11T10:46:44.767Z,1.98
2018-08-11T10:47:49.009Z,2.10
2018-08-11T10:48:53.178Z,2.00
2018-08-11T10:49:57.358Z,2.10
2018-08-11T10:51:01.520Z,1.70
2018-08-11T10:52:05.861Z,2.17
2018-08-11T10:53:10.214Z,2.10
2018-08-11T10:54:14.385Z,2.15
2018-08-11T10:55:18.537Z,2.58
2018-08-11T10:56:22.950Z,2.37
2018-08-11T10:57:27.138Z,2.62
2018-08-11T10:58:31.309Z,2.25
2018-08-11T10:59:36.088Z,1.70
2018-08-11T11:00:40.287Z,1.70
2018-08-11T11:01:44.627Z,2.47
2018-08-11T11:02:48.763Z,1.60
2018-08-11T11:03:52.974Z,1.70
2018-08-11T11:04:57.167Z,1.97
2018-08-11T11:06:01.315Z,2.07
2018-08-11T11:07:05.554Z,2.00
2018-08-11T11:08:09.700Z,2.27
2018-08-11T11:09:13.995Z,2.80
2018-08-11T11:10:18.194Z,1.90
2018-08-11T11:11:22.374Z,2.43
2018-08-11T11:12:26.571Z,2.37
2018-08-11T11:13:30.713Z,2.50
2018-08-11T11:14:34.905Z,2.10
2018-08-11T11:15:39.090Z,2.23
2018-08-11T11:16:43.294Z,2.17
2018-08-11T11:17:47.450Z,2.20
2018-08-11T11:18:51.623Z,1.83
2018-08-11T11:19:55.790Z,2.67
2018-08-11T11:20:59.971Z,1.90
2018-08-11T11:22:04.174Z,2.20
2018-08-11T11:23:08.374Z,2.12
2018-08-11T11:24:12.575Z,2.30
2018-08-11T11:25:16.762Z,1.90
2018-08-11T11:26:21.103Z,1.93
2018-08-11T11:27:25.410Z,1.43
2018-08-11T11:28:29.555Z,2.73
2018-08-11T11:29:33.716Z,1.42
2018-08-11T11:30:38.065Z,1.90
2018-08-11T11:31:42.245Z,1.98
2018-08-11T11:32:46.476Z,1.90
2018-08-11T11:33:50.653Z,1.60
2018-08-11T11:34:54.834Z,1.70
2018-08-11T11:35:59.217Z,1.50
2018-08-11T11:37:03.418Z,1.55
2018-08-11T11:38:07.602Z,1.60
2018-08-11T11:39:11.807Z,2.00
2018-08-11T11:40:15.971Z,1.80
2018-08-11T11:41:20.321Z,1.63
2018-08-11T11:42:24.466Z,1.73
2018-08-11T11:43:28.829Z,1.80
2018-08-11T11:44:32.886Z,1.52
2018-08-11T11:45:37.037Z,1.70
2018-08-11T11:46:41.178Z,1.50
2018-08-11T11:47:45.446Z,2.10
2018-08-11T11:48:49.582Z,1.77
2018-08-11T11:49:53.769Z,2.27
2018-08-11T11:50:57.978Z,1.80
2018-08-11T11:52:02.253Z,1.90
2018-08-11T11:53:06.886Z,1.93
2018-08-11T11:54:11.192Z,1.57
2018-08-11T11:55:15.334Z,1.62
2018-08-11T11:56:19.500Z,1.80
2018-08-11T11:57:23.938Z,1.50
2018-08-11T11:58:28.117Z,1.40
2018-08-11T11:59:32.282Z,1.30
2018-08-11T12:00:36.527Z,1.90
2018-08-11T12:01:40.654Z,1.70
2018-08-11T12:02:45.039Z,1.43
2018-08-11T12:03:49.244Z,1.40
2018-08-11T12:04:53.425Z,1.50
2018-08-11T12:05:57.628Z,1.70
2018-08-11T12:07:01.784Z,2.30
2018-08-11T12:08:05.970Z,2.20
2018-08-11T12:09:11.300Z,1.67
2018-08-11T12:10:15.497Z,2.10
2018-08-11T12:11:19.678Z,1.63
2018-08-11T12:12:23.838Z,1.67
2018-08-11T12:13:28.012Z,1.70
2018-08-11T12:14:32.216Z,1.73
2018-08-11T12:15:36.694Z,1.70
2018-08-11T12:16:40.941Z,1.70
2018-08-11T12:17:45.080Z,1.40
2018-08-11T12:18:49.232Z,1.90
2018-08-11T12:19:53.625Z,1.77
2018-08-11T12:20:57.858Z,1.87
2018-08-11T12:22:02.164Z,1.70
2018-08-11T12:23:06.634Z,2.05
2018-08-11T12:24:10.802Z,1.60
2018-08-11T12:25:15.018Z,2.00
2018-08-11T12:26:19.206Z,1.70
2018-08-11T12:27:23.406Z,1.93
2018-08-11T12:28:27.600Z,1.90
2018-08-11T12:29:31.747Z,1.80
2018-08-11T12:30:35.937Z,1.60
2018-08-11T12:31:40.131Z,2.43
2018-08-11T12:32:44.300Z,1.30
2018-08-11T12:33:48.471Z,1.50
2018-08-11T12:34:52.625Z,1.50
2018-08-11T12:35:56.847Z,1.80
2018-08-11T12:37:00.990Z,1.70
2018-08-11T12:38:05.237Z,1.70
2018-08-11T12:39:10.634Z,1.77
2018-08-11T12:40:14.931Z,1.53
2018-08-11T12:41:19.093Z,2.00
2018-08-11T12:42:23.291Z,1.57
2018-08-11T12:43:27.435Z,1.40
2018-08-11T12:44:31.595Z,1.80
2018-08-11T12:45:35.775Z,1.50
2018-08-11T12:46:39.946Z,2.17
2018-08-11T12:47:44.090Z,1.60
2018-08-11T12:48:48.530Z,1.83
2018-08-11T12:49:52.746Z,1.57
2018-08-11T12:50:57.034Z,1.73
2018-08-11T12:52:01.191Z,1.87
2018-08-11T12:53:05.447Z,1.80
2018-08-11T12:54:09.710Z,2.27
2018-08-11T12:55:13.862Z,2.13
2018-08-11T12:56:18.020Z,1.80
2018-08-11T12:57:22.210Z,1.60
2018-08-11T12:58:26.782Z,1.60
2018-08-11T12:59:30.958Z,1.73
2018-08-11T13:00:35.111Z,1.65
2018-08-11T13:01:39.327Z,2.33
2018-08-11T13:02:43.455Z,1.80
2018-08-11T13:03:47.574Z,2.03
2018-08-11T13:04:51.718Z,2.23
2018-08-11T13:05:55.858Z,1.70
2018-08-11T13:07:00.206Z,1.80
2018-08-11T13:08:04.294Z,2.00
2018-08-11T13:09:09.951Z,1.90
2018-08-11T13:10:14.086Z,1.60
2018-08-11T13:11:18.281Z,1.37
2018-08-11T13:12:22.477Z,1.57
2018-08-11T13:13:26.677Z,1.53
2018-08-11T13:14:30.789Z,2.07
2018-08-11T13:15:34.910Z,1.80
2018-08-11T13:16:39.084Z,1.87
2018-08-11T13:17:43.238Z,1.80
2018-08-11T13:18:47.600Z,2.10
2018-08-11T13:19:51.906Z,2.30
2018-08-11T13:20:56.041Z,2.10
2018-08-11T13:22:00.170Z,2.00
2018-08-11T13:23:04.329Z,2.30
2018-08-11T13:24:08.651Z,2.00
2018-08-11T13:25:12.779Z,2.17
2018-08-11T13:26:17.137Z,2.30
2018-08-11T13:27:21.251Z,2.17
2018-08-11T13:28:25.395Z,2.03
2018-08-11T13:29:29.562Z,1.80
2018-08-11T13:30:33.752Z,2.30
2018-08-11T13:31:37.894Z,2.50
2018-08-11T13:32:42.034Z,2.23
2018-08-11T13:33:46.171Z,2.30
2018-08-11T13:34:50.334Z,2.10
2018-08-11T13:35:54.457Z,2.50
2018-08-11T13:36:58.594Z,1.93
2018-08-11T13:38:02.778Z,2.30
2018-08-11T13:39:08.498Z,2.30
2018-08-11T13:40:12.792Z,2.70
2018-08-11T13:41:16.923Z,2.10
2018-08-11T13:42:21.402Z,2.27
2018-08-11T13:43:25.544Z,2.37
2018-08-11T13:44:29.690Z,1.70
2018-08-11T13:45:34.065Z,2.77
2018-08-11T13:46:38.737Z,2.80
2018-08-11T13:47:42.910Z,2.10
2018-08-11T13:48:47.030Z,2.27
2018-08-11T13:49:51.234Z,2.50
2018-08-11T13:50:55.350Z,2.43
2018-08-11T13:51:59.522Z,2.33
2018-08-11T13:53:03.921Z,2.60
2018-08-11T13:54:08.170Z,2.23
2018-08-11T13:55:12.347Z,2.60
2018-08-11T13:56:16.526Z,2.20
2018-08-11T13:57:20.677Z,2.33
2018-08-11T13:58:24.811Z,1.93
2018-08-11T13:59:29.441Z,2.00
2018-08-11T14:00:33.695Z,2.30
2018-08-11T14:01:37.895Z,2.13
2018-08-11T14:02:42.160Z,1.90
2018-08-11T14:03:46.291Z,1.83
2018-08-11T14:04:50.434Z,1.90
2018-08-11T14:05:54.606Z,2.13
2018-08-11T14:06:58.800Z,2.30
2018-08-11T14:08:02.984Z,2.20
2018-08-11T14:09:07.990Z,1.80
2018-08-11T14:10:12.312Z,1.57
2018-08-11T14:11:16.489Z,1.57
2018-08-11T14:12:20.726Z,1.80
2018-08-11T14:13:24.922Z,2.00
2018-08-11T14:14:29.133Z,1.70
2018-08-11T14:15:33.263Z,2.03